sensor_id;sensor_type;location;lat;lon;timestamp;P1;durP1;ratioP1;P2;durP2;ratioP2
17510;SDS011;8873;48.818;9.422;2023-12-07T00:00:55;15.73;;;8.67;;
17510;SDS011;8873;48.818;9.422;2023-12-07T00:03:23;14.97;;;7.93;;
17510;SDS011;8873;48.818;9.422;2023-12-07T00:05:51;17.70;;;8.97;;
17510;SDS011;8873;48.818;9.422;2023-12-07T00:08:18;15.57;;;8.53;;
17510;SDS011;8873;48.818;9.422;2023-12-07T00:10:46;17.40;;;8.20;;
17510;SDS011;8873;48.818;9.422;2023-12-07T00:13:15;18.43;;;8.70;;
17510;SDS011;8873;48.818;9.422;2023-12-07T00:15:43;18.63;;;8.87;;
17510;SDS011;8873;48.818;9.422;2023-12-07T00:18:11;18.43;;;8.57;;
17510;SDS011;8873;48.818;9.422;2023-12-07T00:20:38;16.53;;;9.07;;
17510;SDS011;8873;48.818;9.422;2023-12-07T00:23:06;18.67;;;10.53;;
17510;SDS011;8873;48.818;9.422;2023-12-07T00:25:34;20.17;;;10.60;;
17510;SDS011;8873;48.818;9.422;2023-12-07T00:28:01;23.23;;;9.50;;
17510;SDS011;8873;48.818;9.422;2023-12-07T00:30:31;20.13;;;9.97;;
17510;SDS011;8873;48.818;9.422;2023-12-07T00:33:02;24.97;;;11.07;;
17510;SDS011;8873;48.818;9.422;2023-12-07T00:35:31;22.20;;;10.70;;
17510;SDS011;8873;48.818;9.422;2023-12-07T00:38:01;21.00;;;10.03;;
17510;SDS011;8873;48.818;9.422;2023-12-07T00:40:29;21.63;;;10.80;;
17510;SDS011;8873;48.818;9.422;2023-12-07T00:42:57;20.70;;;10.43;;
17510;SDS011;8873;48.818;9.422;2023-12-07T00:45:25;24.23;;;10.23;;
17510;SDS011;8873;48.818;9.422;2023-12-07T00:47:54;20.60;;;10.47;;
17510;SDS011;8873;48.818;9.422;2023-12-07T00:50:22;21.33;;;11.00;;
17510;SDS011;8873;48.818;9.422;2023-12-07T00:52:49;20.37;;;9.87;;
17510;SDS011;8873;48.818;9.422;2023-12-07T00:55:17;21.30;;;9.80;;
17510;SDS011;8873;48.818;9.422;2023-12-07T00:57:45;22.13;;;11.00;;
17510;SDS011;8873;48.818;9.422;2023-12-07T01:00:13;21.23;;;10.20;;
17510;SDS011;8873;48.818;9.422;2023-12-07T01:02:40;21.00;;;9.47;;
17510;SDS011;8873;48.818;9.422;2023-12-07T01:05:11;20.63;;;11.00;;
17510;SDS011;8873;48.818;9.422;2023-12-07T01:07:39;19.63;;;10.40;;
17510;SDS011;8873;48.818;9.422;2023-12-07T01:10:07;23.60;;;11.53;;
17510;SDS011;8873;48.818;9.422;2023-12-07T01:12:35;20.53;;;10.60;;
17510;SDS011;8873;48.818;9.422;2023-12-07T01:15:03;23.83;;;10.77;;
17510;SDS011;8873;48.818;9.422;2023-12-07T01:17:31;24.57;;;11.87;;
17510;SDS011;8873;48.818;9.422;2023-12-07T01:20:02;21.17;;;11.87;;
17510;SDS011;8873;48.818;9.422;2023-12-07T01:22:35;22.60;;;11.27;;
17510;SDS011;8873;48.818;9.422;2023-12-07T01:25:04;21.10;;;10.20;;
17510;SDS011;8873;48.818;9.422;2023-12-07T01:27:32;26.00;;;11.60;;
17510;SDS011;8873;48.818;9.422;2023-12-07T01:30:02;22.37;;;11.27;;
17510;SDS011;8873;48.818;9.422;2023-12-07T01:32:30;22.20;;;10.77;;
17510;SDS011;8873;48.818;9.422;2023-12-07T01:34:58;21.17;;;9.97;;
17510;SDS011;8873;48.818;9.422;2023-12-07T01:37:25;21.10;;;10.70;;
17510;SDS011;8873;48.818;9.422;2023-12-07T01:39:55;20.60;;;11.40;;
17510;SDS011;8873;48.818;9.422;2023-12-07T01:42:23;22.63;;;10.87;;
17510;SDS011;8873;48.818;9.422;2023-12-07T01:44:51;19.50;;;10.13;;
17510;SDS011;8873;48.818;9.422;2023-12-07T01:47:18;21.53;;;10.73;;
17510;SDS011;8873;48.818;9.422;2023-12-07T01:49:46;19.77;;;10.33;;
17510;SDS011;8873;48.818;9.422;2023-12-07T01:52:15;20.70;;;10.40;;
17510;SDS011;8873;48.818;9.422;2023-12-07T01:54:43;25.17;;;10.70;;
17510;SDS011;8873;48.818;9.422;2023-12-07T01:57:12;22.23;;;11.33;;
17510;SDS011;8873;48.818;9.422;2023-12-07T01:59:40;21.30;;;10.33;;
17510;SDS011;8873;48.818;9.422;2023-12-07T02:02:07;20.60;;;10.33;;
17510;SDS011;8873;48.818;9.422;2023-12-07T02:04:37;20.93;;;10.67;;
17510;SDS011;8873;48.818;9.422;2023-12-07T02:07:05;21.85;;;10.18;;
17510;SDS011;8873;48.818;9.422;2023-12-07T02:09:34;20.30;;;10.23;;
17510;SDS011;8873;48.818;9.422;2023-12-07T02:12:01;22.60;;;10.83;;
17510;SDS011;8873;48.818;9.422;2023-12-07T02:14:30;18.37;;;10.00;;
17510;SDS011;8873;48.818;9.422;2023-12-07T02:17:00;24.53;;;10.93;;
17510;SDS011;8873;48.818;9.422;2023-12-07T02:19:49;23.13;;;11.27;;
17510;SDS011;8873;48.818;9.422;2023-12-07T02:22:21;21.53;;;10.50;;
17510;SDS011;8873;48.818;9.422;2023-12-07T02:25:00;21.10;;;10.47;;
17510;SDS011;8873;48.818;9.422;2023-12-07T02:27:39;23.63;;;10.90;;
17510;SDS011;8873;48.818;9.422;2023-12-07T02:30:08;21.63;;;11.73;;
17510;SDS011;8873;48.818;9.422;2023-12-07T02:32:36;19.80;;;10.10;;
17510;SDS011;8873;48.818;9.422;2023-12-07T02:35:05;20.13;;;10.73;;
17510;SDS011;8873;48.818;9.422;2023-12-07T02:37:34;20.90;;;10.50;;
17510;SDS011;8873;48.818;9.422;2023-12-07T02:40:05;26.07;;;11.23;;
17510;SDS011;8873;48.818;9.422;2023-12-07T02:42:37;24.53;;;10.97;;
17510;SDS011;8873;48.818;9.422;2023-12-07T02:45:06;20.53;;;10.90;;
17510;SDS011;8873;48.818;9.422;2023-12-07T02:47:37;22.30;;;10.63;;
17510;SDS011;8873;48.818;9.422;2023-12-07T02:50:05;31.93;;;12.33;;
17510;SDS011;8873;48.818;9.422;2023-12-07T02:52:34;23.23;;;11.03;;
17510;SDS011;8873;48.818;9.422;2023-12-07T02:55:02;22.07;;;11.20;;
17510;SDS011;8873;48.818;9.422;2023-12-07T02:57:30;20.47;;;10.57;;
17510;SDS011;8873;48.818;9.422;2023-12-07T02:59:59;25.20;;;11.30;;
17510;SDS011;8873;48.818;9.422;2023-12-07T03:02:29;20.43;;;10.50;;
17510;SDS011;8873;48.818;9.422;2023-12-07T03:04:56;18.40;;;9.77;;
17510;SDS011;8873;48.818;9.422;2023-12-07T03:07:24;19.20;;;10.00;;
17510;SDS011;8873;48.818;9.422;2023-12-07T03:09:51;21.67;;;10.80;;
17510;SDS011;8873;48.818;9.422;2023-12-07T03:12:19;22.63;;;10.27;;
17510;SDS011;8873;48.818;9.422;2023-12-07T03:14:48;21.40;;;11.10;;
17510;SDS011;8873;48.818;9.422;2023-12-07T03:17:16;22.83;;;10.70;;
17510;SDS011;8873;48.818;9.422;2023-12-07T03:19:45;19.43;;;10.97;;
17510;SDS011;8873;48.818;9.422;2023-12-07T03:22:14;21.20;;;10.93;;
17510;SDS011;8873;48.818;9.422;2023-12-07T03:24:45;21.40;;;11.00;;
17510;SDS011;8873;48.818;9.422;2023-12-07T03:27:13;24.00;;;11.77;;
17510;SDS011;8873;48.818;9.422;2023-12-07T03:29:40;21.50;;;10.63;;
17510;SDS011;8873;48.818;9.422;2023-12-07T03:32:08;22.00;;;11.30;;
17510;SDS011;8873;48.818;9.422;2023-12-07T03:34:37;25.47;;;12.17;;
17510;SDS011;8873;48.818;9.422;2023-12-07T03:37:09;27.37;;;11.50;;
17510;SDS011;8873;48.818;9.422;2023-12-07T03:39:37;26.53;;;12.23;;
17510;SDS011;8873;48.818;9.422;2023-12-07T03:42:04;26.57;;;12.30;;
17510;SDS011;8873;48.818;9.422;2023-12-07T03:44:52;24.17;;;12.23;;
17510;SDS011;8873;48.818;9.422;2023-12-07T03:47:20;23.93;;;12.20;;
17510;SDS011;8873;48.818;9.422;2023-12-07T03:49:47;29.00;;;12.60;;
17510;SDS011;8873;48.818;9.422;2023-12-07T03:52:17;26.70;;;11.97;;
17510;SDS011;8873;48.818;9.422;2023-12-07T03:54:45;25.80;;;12.07;;
17510;SDS011;8873;48.818;9.422;2023-12-07T03:57:14;27.67;;;12.43;;
17510;SDS011;8873;48.818;9.422;2023-12-07T03:59:42;25.10;;;11.63;;
17510;SDS011;8873;48.818;9.422;2023-12-07T04:02:09;24.93;;;12.20;;
17510;SDS011;8873;48.818;9.422;2023-12-07T04:04:37;25.20;;;11.37;;
17510;SDS011;8873;48.818;9.422;2023-12-07T04:07:06;27.93;;;12.20;;
17510;SDS011;8873;48.818;9.422;2023-12-07T04:09:35;26.03;;;11.33;;
17510;SDS011;8873;48.818;9.422;2023-12-07T04:12:02;23.57;;;11.93;;
17510;SDS011;8873;48.818;9.422;2023-12-07T04:14:30;23.07;;;10.87;;
17510;SDS011;8873;48.818;9.422;2023-12-07T04:16:58;26.77;;;11.73;;
17510;SDS011;8873;48.818;9.422;2023-12-07T04:19:26;24.57;;;10.77;;
17510;SDS011;8873;48.818;9.422;2023-12-07T04:21:53;24.67;;;10.83;;
17510;SDS011;8873;48.818;9.422;2023-12-07T04:24:21;21.77;;;11.10;;
17510;SDS011;8873;48.818;9.422;2023-12-07T04:26:50;25.77;;;11.77;;
17510;SDS011;8873;48.818;9.422;2023-12-07T04:29:18;21.33;;;10.30;;
17510;SDS011;8873;48.818;9.422;2023-12-07T04:31:45;24.93;;;11.23;;
17510;SDS011;8873;48.818;9.422;2023-12-07T04:34:14;23.23;;;10.87;;
17510;SDS011;8873;48.818;9.422;2023-12-07T04:36:42;19.60;;;10.33;;
17510;SDS011;8873;48.818;9.422;2023-12-07T04:39:09;23.47;;;10.07;;
17510;SDS011;8873;48.818;9.422;2023-12-07T04:41:37;26.17;;;10.30;;
17510;SDS011;8873;48.818;9.422;2023-12-07T04:44:06;26.63;;;11.27;;
17510;SDS011;8873;48.818;9.422;2023-12-07T04:46:34;23.13;;;10.37;;
17510;SDS011;8873;48.818;9.422;2023-12-07T04:49:02;20.50;;;9.87;;
17510;SDS011;8873;48.818;9.422;2023-12-07T04:51:30;17.97;;;8.30;;
17510;SDS011;8873;48.818;9.422;2023-12-07T04:53:57;21.90;;;9.20;;
17510;SDS011;8873;48.818;9.422;2023-12-07T04:56:41;20.33;;;10.23;;
17510;SDS011;8873;48.818;9.422;2023-12-07T04:59:11;20.23;;;10.30;;
17510;SDS011;8873;48.818;9.422;2023-12-07T05:01:39;24.53;;;11.30;;
17510;SDS011;8873;48.818;9.422;2023-12-07T05:04:07;25.43;;;11.40;;
17510;SDS011;8873;48.818;9.422;2023-12-07T05:06:34;23.17;;;10.13;;
17510;SDS011;8873;48.818;9.422;2023-12-07T05:09:02;23.87;;;10.63;;
17510;SDS011;8873;48.818;9.422;2023-12-07T05:11:30;25.17;;;11.20;;
17510;SDS011;8873;48.818;9.422;2023-12-07T05:13:57;30.60;;;12.37;;
17510;SDS011;8873;48.818;9.422;2023-12-07T05:16:26;27.33;;;12.00;;
17510;SDS011;8873;48.818;9.422;2023-12-07T05:18:54;31.63;;;13.43;;
17510;SDS011;8873;48.818;9.422;2023-12-07T05:21:22;35.50;;;14.27;;
17510;SDS011;8873;48.818;9.422;2023-12-07T05:23:49;30.67;;;13.40;;
17510;SDS011;8873;48.818;9.422;2023-12-07T05:26:18;25.23;;;12.23;;
17510;SDS011;8873;48.818;9.422;2023-12-07T05:28:45;27.33;;;11.67;;
17510;SDS011;8873;48.818;9.422;2023-12-07T05:31:15;32.60;;;13.07;;
17510;SDS011;8873;48.818;9.422;2023-12-07T05:33:44;27.70;;;12.37;;
17510;SDS011;8873;48.818;9.422;2023-12-07T05:36:12;26.87;;;12.20;;
17510;SDS011;8873;48.818;9.422;2023-12-07T05:38:40;32.93;;;12.57;;
17510;SDS011;8873;48.818;9.422;2023-12-07T05:41:09;30.07;;;12.67;;
17510;SDS011;8873;48.818;9.422;2023-12-07T05:43:40;23.77;;;11.53;;
17510;SDS011;8873;48.818;9.422;2023-12-07T05:46:07;25.73;;;11.27;;
17510;SDS011;8873;48.818;9.422;2023-12-07T05:48:35;29.97;;;12.83;;
17510;SDS011;8873;48.818;9.422;2023-12-07T05:51:05;28.27;;;11.97;;
17510;SDS011;8873;48.818;9.422;2023-12-07T05:53:33;30.03;;;13.20;;
17510;SDS011;8873;48.818;9.422;2023-12-07T05:56:01;27.67;;;12.30;;
17510;SDS011;8873;48.818;9.422;2023-12-07T05:58:30;29.40;;;12.00;;
17510;SDS011;8873;48.818;9.422;2023-12-07T06:00:59;25.73;;;11.47;;
17510;SDS011;8873;48.818;9.422;2023-12-07T06:03:28;32.80;;;13.23;;
17510;SDS011;8873;48.818;9.422;2023-12-07T06:05:56;33.77;;;13.40;;
17510;SDS011;8873;48.818;9.422;2023-12-07T06:08:25;29.53;;;13.33;;
17510;SDS011;8873;48.818;9.422;2023-12-07T06:10:53;33.63;;;13.53;;
17510;SDS011;8873;48.818;9.422;2023-12-07T06:13:20;30.10;;;13.17;;
17510;SDS011;8873;48.818;9.422;2023-12-07T06:15:48;33.63;;;14.63;;
17510;SDS011;8873;48.818;9.422;2023-12-07T06:18:16;31.17;;;13.60;;
17510;SDS011;8873;48.818;9.422;2023-12-07T06:20:47;35.17;;;15.63;;
17510;SDS011;8873;48.818;9.422;2023-12-07T06:23:14;31.17;;;14.17;;
17510;SDS011;8873;48.818;9.422;2023-12-07T06:25:43;33.33;;;15.23;;
17510;SDS011;8873;48.818;9.422;2023-12-07T06:28:11;29.73;;;14.70;;
17510;SDS011;8873;48.818;9.422;2023-12-07T06:30:39;31.07;;;13.67;;
17510;SDS011;8873;48.818;9.422;2023-12-07T06:33:06;30.93;;;12.87;;
17510;SDS011;8873;48.818;9.422;2023-12-07T06:35:35;28.53;;;12.70;;
17510;SDS011;8873;48.818;9.422;2023-12-07T06:38:03;27.43;;;12.17;;
17510;SDS011;8873;48.818;9.422;2023-12-07T06:40:30;29.13;;;12.03;;
17510;SDS011;8873;48.818;9.422;2023-12-07T06:43:00;31.80;;;13.83;;
17510;SDS011;8873;48.818;9.422;2023-12-07T06:45:27;34.10;;;13.60;;
17510;SDS011;8873;48.818;9.422;2023-12-07T06:47:55;35.63;;;15.93;;
17510;SDS011;8873;48.818;9.422;2023-12-07T06:50:22;38.87;;;15.17;;
17510;SDS011;8873;48.818;9.422;2023-12-07T06:52:50;43.10;;;17.87;;
17510;SDS011;8873;48.818;9.422;2023-12-07T06:55:18;52.30;;;18.50;;
17510;SDS011;8873;48.818;9.422;2023-12-07T06:57:46;73.40;;;19.70;;
17510;SDS011;8873;48.818;9.422;2023-12-07T07:00:15;69.07;;;19.27;;
17510;SDS011;8873;48.818;9.422;2023-12-07T07:02:44;78.67;;;20.57;;
17510;SDS011;8873;48.818;9.422;2023-12-07T07:05:12;61.57;;;17.90;;
17510;SDS011;8873;48.818;9.422;2023-12-07T07:07:39;71.63;;;17.07;;
17510;SDS011;8873;48.818;9.422;2023-12-07T07:10:08;61.23;;;16.23;;
17510;SDS011;8873;48.818;9.422;2023-12-07T07:12:39;71.27;;;18.87;;
17510;SDS011;8873;48.818;9.422;2023-12-07T07:15:07;56.27;;;19.40;;
17510;SDS011;8873;48.818;9.422;2023-12-07T07:17:36;56.90;;;19.57;;
17510;SDS011;8873;48.818;9.422;2023-12-07T07:20:04;49.77;;;16.90;;
17510;SDS011;8873;48.818;9.422;2023-12-07T07:22:32;72.70;;;16.20;;
17510;SDS011;8873;48.818;9.422;2023-12-07T07:25:00;86.27;;;18.10;;
17510;SDS011;8873;48.818;9.422;2023-12-07T07:27:28;90.73;;;18.60;;
17510;SDS011;8873;48.818;9.422;2023-12-07T07:29:56;63.97;;;17.67;;
17510;SDS011;8873;48.818;9.422;2023-12-07T07:32:24;55.47;;;16.37;;
17510;SDS011;8873;48.818;9.422;2023-12-07T07:34:53;73.90;;;17.47;;
17510;SDS011;8873;48.818;9.422;2023-12-07T07:37:21;56.20;;;16.93;;
17510;SDS011;8873;48.818;9.422;2023-12-07T07:39:49;60.10;;;16.67;;
17510;SDS011;8873;48.818;9.422;2023-12-07T07:42:17;55.83;;;15.83;;
17510;SDS011;8873;48.818;9.422;2023-12-07T07:44:44;43.17;;;16.17;;
17510;SDS011;8873;48.818;9.422;2023-12-07T07:47:13;49.70;;;15.93;;
17510;SDS011;8873;48.818;9.422;2023-12-07T07:49:40;38.57;;;14.07;;
17510;SDS011;8873;48.818;9.422;2023-12-07T07:52:09;48.30;;;16.90;;
17510;SDS011;8873;48.818;9.422;2023-12-07T07:54:38;38.70;;;16.00;;
17510;SDS011;8873;48.818;9.422;2023-12-07T07:57:05;48.67;;;16.60;;
17510;SDS011;8873;48.818;9.422;2023-12-07T07:59:33;62.60;;;17.73;;
17510;SDS011;8873;48.818;9.422;2023-12-07T08:02:00;50.53;;;16.50;;
17510;SDS011;8873;48.818;9.422;2023-12-07T08:04:28;53.07;;;15.63;;
17510;SDS011;8873;48.818;9.422;2023-12-07T08:06:56;45.70;;;15.63;;
17510;SDS011;8873;48.818;9.422;2023-12-07T08:09:25;41.83;;;15.00;;
17510;SDS011;8873;48.818;9.422;2023-12-07T08:11:53;47.10;;;14.83;;
17510;SDS011;8873;48.818;9.422;2023-12-07T08:14:20;62.80;;;16.03;;
17510;SDS011;8873;48.818;9.422;2023-12-07T08:16:48;46.13;;;15.07;;
17510;SDS011;8873;48.818;9.422;2023-12-07T08:19:16;59.20;;;15.03;;
17510;SDS011;8873;48.818;9.422;2023-12-07T08:21:45;33.27;;;12.97;;
17510;SDS011;8873;48.818;9.422;2023-12-07T08:24:13;42.93;;;15.17;;
17510;SDS011;8873;48.818;9.422;2023-12-07T08:26:42;52.23;;;14.27;;
17510;SDS011;8873;48.818;9.422;2023-12-07T08:29:10;45.47;;;13.57;;
17510;SDS011;8873;48.818;9.422;2023-12-07T08:31:37;33.30;;;13.27;;
17510;SDS011;8873;48.818;9.422;2023-12-07T08:34:05;34.17;;;13.93;;
17510;SDS011;8873;48.818;9.422;2023-12-07T08:36:35;37.00;;;13.80;;
17510;SDS011;8873;48.818;9.422;2023-12-07T08:39:03;41.50;;;13.60;;
17510;SDS011;8873;48.818;9.422;2023-12-07T08:41:30;42.67;;;13.97;;
17510;SDS011;8873;48.818;9.422;2023-12-07T08:43:59;52.20;;;14.67;;
17510;SDS011;8873;48.818;9.422;2023-12-07T08:46:31;34.47;;;13.53;;
17510;SDS011;8873;48.818;9.422;2023-12-07T08:49:00;30.80;;;13.50;;
17510;SDS011;8873;48.818;9.422;2023-12-07T08:51:28;31.83;;;15.00;;
17510;SDS011;8873;48.818;9.422;2023-12-07T08:53:55;35.35;;;13.40;;
17510;SDS011;8873;48.818;9.422;2023-12-07T08:56:23;28.20;;;13.03;;
17510;SDS011;8873;48.818;9.422;2023-12-07T08:58:52;38.47;;;14.30;;
17510;SDS011;8873;48.818;9.422;2023-12-07T09:01:21;34.23;;;14.07;;
17510;SDS011;8873;48.818;9.422;2023-12-07T09:03:58;36.40;;;14.20;;
17510;SDS011;8873;48.818;9.422;2023-12-07T09:06:26;30.63;;;15.07;;
17510;SDS011;8873;48.818;9.422;2023-12-07T09:08:53;39.70;;;15.47;;
17510;SDS011;8873;48.818;9.422;2023-12-07T09:11:21;43.17;;;15.03;;
17510;SDS011;8873;48.818;9.422;2023-12-07T09:13:49;36.20;;;14.43;;
17510;SDS011;8873;48.818;9.422;2023-12-07T09:16:17;31.30;;;14.70;;
17510;SDS011;8873;48.818;9.422;2023-12-07T09:18:46;40.30;;;14.83;;
17510;SDS011;8873;48.818;9.422;2023-12-07T09:21:13;33.60;;;14.87;;
17510;SDS011;8873;48.818;9.422;2023-12-07T09:23:43;39.40;;;16.40;;
17510;SDS011;8873;48.818;9.422;2023-12-07T09:26:11;57.07;;;14.53;;
17510;SDS011;8873;48.818;9.422;2023-12-07T09:28:38;54.30;;;15.33;;
17510;SDS011;8873;48.818;9.422;2023-12-07T09:31:06;57.27;;;15.90;;
17510;SDS011;8873;48.818;9.422;2023-12-07T09:33:34;57.70;;;16.27;;
17510;SDS011;8873;48.818;9.422;2023-12-07T09:36:03;66.53;;;17.20;;
17510;SDS011;8873;48.818;9.422;2023-12-07T09:38:35;34.50;;;15.17;;
17510;SDS011;8873;48.818;9.422;2023-12-07T09:41:03;45.50;;;15.07;;
17510;SDS011;8873;48.818;9.422;2023-12-07T09:43:31;45.20;;;16.20;;
17510;SDS011;8873;48.818;9.422;2023-12-07T09:45:59;43.97;;;15.30;;
17510;SDS011;8873;48.818;9.422;2023-12-07T09:48:27;42.77;;;15.53;;
17510;SDS011;8873;48.818;9.422;2023-12-07T09:50:55;39.33;;;15.90;;
17510;SDS011;8873;48.818;9.422;2023-12-07T09:53:25;37.87;;;15.67;;
17510;SDS011;8873;48.818;9.422;2023-12-07T09:55:52;38.83;;;15.63;;
17510;SDS011;8873;48.818;9.422;2023-12-07T09:58:20;62.60;;;17.00;;
17510;SDS011;8873;48.818;9.422;2023-12-07T10:01:03;46.20;;;16.43;;
17510;SDS011;8873;48.818;9.422;2023-12-07T10:03:32;72.00;;;18.23;;
17510;SDS011;8873;48.818;9.422;2023-12-07T10:06:00;47.80;;;18.20;;
17510;SDS011;8873;48.818;9.422;2023-12-07T10:08:30;55.47;;;17.27;;
17510;SDS011;8873;48.818;9.422;2023-12-07T10:11:04;45.50;;;18.03;;
17510;SDS011;8873;48.818;9.422;2023-12-07T10:13:33;38.83;;;15.67;;
17510;SDS011;8873;48.818;9.422;2023-12-07T10:16:09;45.70;;;16.23;;
17510;SDS011;8873;48.818;9.422;2023-12-07T10:18:37;40.00;;;16.83;;
17510;SDS011;8873;48.818;9.422;2023-12-07T10:21:09;40.22;;;16.02;;
17510;SDS011;8873;48.818;9.422;2023-12-07T10:23:39;39.20;;;15.93;;
17510;SDS011;8873;48.818;9.422;2023-12-07T10:26:10;45.80;;;18.13;;
17510;SDS011;8873;48.818;9.422;2023-12-07T10:28:38;40.33;;;17.40;;
17510;SDS011;8873;48.818;9.422;2023-12-07T10:31:08;40.57;;;17.47;;
17510;SDS011;8873;48.818;9.422;2023-12-07T10:33:36;33.13;;;15.20;;
17510;SDS011;8873;48.818;9.422;2023-12-07T10:36:04;41.13;;;16.73;;
17510;SDS011;8873;48.818;9.422;2023-12-07T10:38:33;37.50;;;15.40;;
17510;SDS011;8873;48.818;9.422;2023-12-07T10:41:06;34.63;;;16.10;;
17510;SDS011;8873;48.818;9.422;2023-12-07T10:43:36;38.67;;;16.50;;
17510;SDS011;8873;48.818;9.422;2023-12-07T10:46:04;34.97;;;16.30;;
17510;SDS011;8873;48.818;9.422;2023-12-07T10:48:32;35.60;;;16.70;;
17510;SDS011;8873;48.818;9.422;2023-12-07T10:51:02;34.45;;;15.93;;
17510;SDS011;8873;48.818;9.422;2023-12-07T10:53:37;37.85;;;16.27;;
17510;SDS011;8873;48.818;9.422;2023-12-07T10:56:13;33.03;;;16.05;;
17510;SDS011;8873;48.818;9.422;2023-12-07T10:58:43;33.50;;;15.70;;
17510;SDS011;8873;48.818;9.422;2023-12-07T11:01:11;27.92;;;15.40;;
17510;SDS011;8873;48.818;9.422;2023-12-07T11:03:40;29.50;;;15.25;;
17510;SDS011;8873;48.818;9.422;2023-12-07T11:06:09;31.58;;;14.48;;
17510;SDS011;8873;48.818;9.422;2023-12-07T11:08:39;25.73;;;13.18;;
17510;SDS011;8873;48.818;9.422;2023-12-07T11:11:12;27.38;;;13.55;;
17510;SDS011;8873;48.818;9.422;2023-12-07T11:13:45;20.98;;;12.48;;
17510;SDS011;8873;48.818;9.422;2023-12-07T11:16:13;20.80;;;11.98;;
17510;SDS011;8873;48.818;9.422;2023-12-07T11:18:41;23.58;;;12.30;;
17510;SDS011;8873;48.818;9.422;2023-12-07T11:21:09;19.35;;;10.82;;
17510;SDS011;8873;48.818;9.422;2023-12-07T11:23:37;19.50;;;9.98;;
17510;SDS011;8873;48.818;9.422;2023-12-07T11:26:05;17.17;;;9.65;;
17510;SDS011;8873;48.818;9.422;2023-12-07T11:28:37;16.25;;;10.20;;
17510;SDS011;8873;48.818;9.422;2023-12-07T11:31:06;16.25;;;9.60;;
17510;SDS011;8873;48.818;9.422;2023-12-07T11:33:37;16.25;;;10.13;;
17510;SDS011;8873;48.818;9.422;2023-12-07T11:36:06;17.98;;;10.02;;
17510;SDS011;8873;48.818;9.422;2023-12-07T11:38:38;17.25;;;9.45;;
17510;SDS011;8873;48.818;9.422;2023-12-07T11:41:06;15.90;;;9.07;;
17510;SDS011;8873;48.818;9.422;2023-12-07T11:43:41;18.35;;;8.98;;
17510;SDS011;8873;48.818;9.422;2023-12-07T11:46:13;14.73;;;9.50;;
17510;SDS011;8873;48.818;9.422;2023-12-07T11:48:47;14.88;;;8.98;;
17510;SDS011;8873;48.818;9.422;2023-12-07T11:51:16;15.27;;;8.80;;
17510;SDS011;8873;48.818;9.422;2023-12-07T11:53:45;16.27;;;8.73;;
17510;SDS011;8873;48.818;9.422;2023-12-07T11:56:15;13.27;;;8.68;;
17510;SDS011;8873;48.818;9.422;2023-12-07T11:58:49;13.30;;;8.27;;
17510;SDS011;8873;48.818;9.422;2023-12-07T12:01:19;13.95;;;8.77;;
17510;SDS011;8873;48.818;9.422;2023-12-07T12:03:47;13.98;;;8.65;;
17510;SDS011;8873;48.818;9.422;2023-12-07T12:06:15;14.30;;;9.02;;
17510;SDS011;8873;48.818;9.422;2023-12-07T12:08:44;13.98;;;8.80;;
17510;SDS011;8873;48.818;9.422;2023-12-07T12:11:11;12.68;;;8.15;;
17510;SDS011;8873;48.818;9.422;2023-12-07T12:13:40;11.93;;;8.27;;
17510;SDS011;8873;48.818;9.422;2023-12-07T12:16:09;12.35;;;8.38;;
17510;SDS011;8873;48.818;9.422;2023-12-07T12:18:41;12.65;;;7.65;;
17510;SDS011;8873;48.818;9.422;2023-12-07T12:21:09;11.93;;;7.15;;
17510;SDS011;8873;48.818;9.422;2023-12-07T12:23:36;11.63;;;7.47;;
17510;SDS011;8873;48.818;9.422;2023-12-07T12:26:06;12.32;;;7.28;;
17510;SDS011;8873;48.818;9.422;2023-12-07T12:28:34;11.35;;;7.88;;
17510;SDS011;8873;48.818;9.422;2023-12-07T12:31:10;58.28;;;21.25;;
17510;SDS011;8873;48.818;9.422;2023-12-07T12:33:39;22.48;;;10.48;;
17510;SDS011;8873;48.818;9.422;2023-12-07T12:36:08;12.93;;;7.75;;
17510;SDS011;8873;48.818;9.422;2023-12-07T12:38:37;12.07;;;7.47;;
17510;SDS011;8873;48.818;9.422;2023-12-07T12:41:09;16.92;;;8.27;;
17510;SDS011;8873;48.818;9.422;2023-12-07T12:43:37;12.75;;;7.15;;
17510;SDS011;8873;48.818;9.422;2023-12-07T12:46:05;13.60;;;7.85;;
17510;SDS011;8873;48.818;9.422;2023-12-07T12:48:34;12.90;;;7.50;;
17510;SDS011;8873;48.818;9.422;2023-12-07T12:51:09;12.13;;;7.43;;
17510;SDS011;8873;48.818;9.422;2023-12-07T12:53:43;10.73;;;6.68;;
17510;SDS011;8873;48.818;9.422;2023-12-07T12:56:16;13.68;;;6.47;;
17510;SDS011;8873;48.818;9.422;2023-12-07T12:58:45;10.35;;;6.00;;
17510;SDS011;8873;48.818;9.422;2023-12-07T13:01:13;8.80;;;5.50;;
17510;SDS011;8873;48.818;9.422;2023-12-07T13:03:45;9.10;;;5.90;;
17510;SDS011;8873;48.818;9.422;2023-12-07T13:06:13;8.00;;;5.28;;
17510;SDS011;8873;48.818;9.422;2023-12-07T13:08:42;7.93;;;5.20;;
17510;SDS011;8873;48.818;9.422;2023-12-07T13:11:14;7.75;;;5.13;;
17510;SDS011;8873;48.818;9.422;2023-12-07T13:13:43;5.53;;;4.53;;
17510;SDS011;8873;48.818;9.422;2023-12-07T13:16:11;6.03;;;4.78;;
17510;SDS011;8873;48.818;9.422;2023-12-07T13:18:39;8.50;;;4.20;;
17510;SDS011;8873;48.818;9.422;2023-12-07T13:21:08;5.05;;;4.03;;
17510;SDS011;8873;48.818;9.422;2023-12-07T13:23:38;5.90;;;3.53;;
17510;SDS011;8873;48.818;9.422;2023-12-07T13:26:06;6.45;;;3.47;;
17510;SDS011;8873;48.818;9.422;2023-12-07T13:28:33;4.78;;;3.50;;
17510;SDS011;8873;48.818;9.422;2023-12-07T13:31:01;4.20;;;3.20;;
17510;SDS011;8873;48.818;9.422;2023-12-07T13:33:29;6.95;;;3.25;;
17510;SDS011;8873;48.818;9.422;2023-12-07T13:36:09;3.63;;;3.10;;
17510;SDS011;8873;48.818;9.422;2023-12-07T13:38:44;4.05;;;2.75;;
17510;SDS011;8873;48.818;9.422;2023-12-07T13:41:13;3.38;;;2.70;;
17510;SDS011;8873;48.818;9.422;2023-12-07T13:43:41;4.32;;;2.83;;
17510;SDS011;8873;48.818;9.422;2023-12-07T13:46:09;3.53;;;3.13;;
17510;SDS011;8873;48.818;9.422;2023-12-07T13:48:37;8.45;;;2.95;;
17510;SDS011;8873;48.818;9.422;2023-12-07T13:51:05;4.57;;;3.33;;
17510;SDS011;8873;48.818;9.422;2023-12-07T13:53:34;9.55;;;2.65;;
17510;SDS011;8873;48.818;9.422;2023-12-07T13:56:06;6.50;;;3.45;;
17510;SDS011;8873;48.818;9.422;2023-12-07T13:58:36;7.03;;;3.55;;
17510;SDS011;8873;48.818;9.422;2023-12-07T14:01:05;7.22;;;3.38;;
17510;SDS011;8873;48.818;9.422;2023-12-07T14:03:33;3.80;;;3.42;;
17510;SDS011;8873;48.818;9.422;2023-12-07T14:06:01;5.32;;;2.92;;
17510;SDS011;8873;48.818;9.422;2023-12-07T14:08:41;6.95;;;2.55;;
17510;SDS011;8873;48.818;9.422;2023-12-07T14:11:09;2.53;;;2.30;;
17510;SDS011;8873;48.818;9.422;2023-12-07T14:13:38;5.85;;;2.75;;
17510;SDS011;8873;48.818;9.422;2023-12-07T14:16:06;4.22;;;2.55;;
17510;SDS011;8873;48.818;9.422;2023-12-07T14:18:45;6.95;;;2.92;;
17510;SDS011;8873;48.818;9.422;2023-12-07T14:21:33;4.15;;;3.10;;
17510;SDS011;8873;48.818;9.422;2023-12-07T14:24:09;2.95;;;2.50;;
17510;SDS011;8873;48.818;9.422;2023-12-07T14:26:36;2.50;;;2.30;;
17510;SDS011;8873;48.818;9.422;2023-12-07T14:29:05;4.93;;;2.60;;
17510;SDS011;8873;48.818;9.422;2023-12-07T14:31:35;2.53;;;2.33;;
17510;SDS011;8873;48.818;9.422;2023-12-07T14:34:03;3.05;;;2.58;;
17510;SDS011;8873;48.818;9.422;2023-12-07T14:36:32;7.57;;;2.80;;
17510;SDS011;8873;48.818;9.422;2023-12-07T14:39:00;3.10;;;2.67;;
17510;SDS011;8873;48.818;9.422;2023-12-07T14:41:30;4.30;;;3.08;;
17510;SDS011;8873;48.818;9.422;2023-12-07T14:43:58;6.47;;;3.15;;
17510;SDS011;8873;48.818;9.422;2023-12-07T14:46:25;4.75;;;3.22;;
17510;SDS011;8873;48.818;9.422;2023-12-07T14:48:53;5.00;;;3.92;;
17510;SDS011;8873;48.818;9.422;2023-12-07T14:51:22;3.30;;;2.90;;